Time;durP1;ratioP1;P1;durP2;ratioP2;P2;SDS_P1;SDS_P2;PMS_P1;PMS_P2;Temp;Humidity;BMP_temperature;BMP_pressure;BME280_temperature;BME280_humidity;BME280_pressure;Samples;Min_cycle;Max_cycle;Signal;HPM_P1;HPM_P2
2021/08/07 00:00:35;;;;;;;1.30;0.80;;;24.30;56.50;;;;;;5104780;28;20208;-71
2021/08/07 00:03:08;;;;;;;0.60;0.60;;;24.30;56.50;;;;;;5105377;28;20196;-71
2021/08/07 00:05:39;;;;;;;0.80;0.80;;;24.30;56.50;;;;;;5105162;28;20193;-71
2021/08/07 00:08:07;;;;;;;0.60;0.60;;;24.30;56.60;;;;;;5100961;28;20193;-71
2021/08/07 00:10:38;;;;;;;1.10;1.00;;;24.30;56.50;;;;;;5106788;28;20192;-71
2021/08/07 00:13:06;;;;;;;0.80;0.80;;;24.20;56.40;;;;;;5103237;28;20215;-71
2021/08/07 00:15:39;;;;;;;0.60;0.60;;;24.30;56.60;;;;;;5098594;28;20281;-71
2021/08/07 00:18:09;;;;;;;0.87;0.87;;;24.20;56.50;;;;;;5097996;28;20192;-71
2021/08/07 00:20:41;;;;;;;0.70;0.70;;;24.30;56.60;;;;;;5102226;28;20192;-71
2021/08/07 00:23:09;;;;;;;1.00;0.80;;;24.30;56.50;;;;;;5088905;28;20219;-71
2021/08/07 00:25:38;;;;;;;0.80;0.80;;;24.30;56.60;;;;;;5107323;28;20613;-70
2021/08/07 00:28:10;;;;;;;1.03;0.87;;;24.30;56.50;;;;;;5100994;28;20284;-71
2021/08/07 00:30:43;;;;;;;0.80;0.70;;;24.30;56.50;;;;;;5107624;28;20196;-71
2021/08/07 00:33:16;;;;;;;0.77;0.77;;;24.20;56.50;;;;;;5102392;28;20191;-71
2021/08/07 00:35:47;;;;;;;1.13;0.90;;;24.20;56.50;;;;;;5099736;28;20687;-71
2021/08/07 00:38:30;;;;;;;0.70;0.70;;;24.20;56.60;;;;;;5103286;28;20275;-71
2021/08/07 00:40:59;;;;;;;1.50;0.80;;;24.20;56.50;;;;;;5101465;28;20197;-71
2021/08/07 00:43:29;;;;;;;0.80;0.80;;;24.20;56.60;;;;;;5105185;28;20210;-71
2021/08/07 00:46:01;;;;;;;0.90;0.70;;;24.20;56.50;;;;;;5101775;28;20263;-71
2021/08/07 00:48:31;;;;;;;0.70;0.70;;;24.20;56.60;;;;;;5108402;28;20196;-71
2021/08/07 00:50:59;;;;;;;0.73;0.70;;;24.20;56.50;;;;;;5105580;28;20207;-71
2021/08/07 00:53:29;;;;;;;0.60;0.60;;;24.20;56.50;;;;;;5090933;28;20304;-71
2021/08/07 00:56:01;;;;;;;1.10;1.00;;;24.20;56.60;;;;;;5098231;28;20217;-71
2021/08/07 00:58:33;;;;;;;0.73;0.73;;;24.20;56.60;;;;;;5093352;28;20233;-71
2021/08/07 01:01:33;;;;;;;0.80;0.80;;;24.20;56.60;;;;;;5094843;28;20292;-71
2021/08/07 01:04:06;;;;;;;1.10;0.90;;;24.20;56.50;;;;;;5108754;28;20283;-71
2021/08/07 01:07:17;;;;;;;0.83;0.70;;;24.20;56.60;;;;;;5094082;28;20353;-71
2021/08/07 01:10:22;;;;;;;0.90;0.83;;;24.20;56.60;;;;;;5097275;28;20245;-71
2021/08/07 01:13:17;;;;;;;0.83;0.70;;;24.20;56.60;;;;;;5095664;28;20212;-70
2021/08/07 01:15:57;;;;;;;1.10;0.90;;;24.10;56.60;;;;;;5100425;28;20204;-70
2021/08/07 01:18:27;;;;;;;1.20;0.90;;;24.10;56.70;;;;;;5105072;28;20633;-71
2021/08/07 01:21:01;;;;;;;0.73;0.73;;;24.10;56.70;;;;;;5104047;28;20189;-70
2021/08/07 01:23:52;;;;;;;0.90;0.73;;;24.10;56.60;;;;;;5097398;28;20205;-70
2021/08/07 01:26:46;;;;;;;1.23;0.80;;;24.10;56.60;;;;;;5106767;28;20219;-71
2021/08/07 01:29:18;;;;;;;0.83;0.83;;;24.10;56.70;;;;;;5101200;28;20249;-70
2021/08/07 01:31:48;;;;;;;0.80;0.80;;;24.10;56.70;;;;;;5100052;28;20227;-70
2021/08/07 01:34:17;;;;;;;1.07;1.00;;;24.10;57.10;;;;;;5103136;28;20640;-70
2021/08/07 01:36:48;;;;;;;0.70;0.67;;;24.10;56.80;;;;;;5104109;28;20216;-70
2021/08/07 01:39:19;;;;;;;0.70;0.70;;;24.10;56.70;;;;;;5100058;28;20203;-70
2021/08/07 01:41:51;;;;;;;1.03;0.90;;;24.10;56.60;;;;;;5103108;28;20184;-70
2021/08/07 01:44:24;;;;;;;1.00;0.80;;;24.10;56.70;;;;;;5107518;28;20185;-70
2021/08/07 01:47:11;;;;;;;0.80;0.80;;;24.10;56.70;;;;;;5104432;28;20200;-70
2021/08/07 01:50:22;;;;;;;0.70;0.70;;;24.10;56.70;;;;;;5107533;28;20192;-70
2021/08/07 01:52:57;;;;;;;0.80;0.80;;;24.10;56.70;;;;;;5103120;28;20181;-70
2021/08/07 01:55:49;;;;;;;0.80;0.70;;;24.10;56.70;;;;;;5095284;28;20222;-70
2021/08/07 01:58:37;;;;;;;0.80;0.80;;;24.10;56.70;;;;;;5102969;28;20552;-71
2021/08/07 02:01:09;;;;;;;0.80;0.80;;;24.10;56.80;;;;;;5088160;28;20242;-70
2021/08/07 02:03:40;;;;;;;0.87;0.80;;;24.10;56.90;;;;;;5107333;28;20295;-70
2021/08/07 02:06:09;;;;;;;0.87;0.70;;;24.10;56.80;;;;;;5090068;28;20582;-70
2021/08/07 02:08:41;;;;;;;0.87;0.80;;;24.10;56.70;;;;;;5108043;28;20234;-70
2021/08/07 02:11:12;;;;;;;0.60;0.60;;;24.00;56.70;;;;;;5124686;27;20204;-70
2021/08/07 02:13:42;;;;;;;0.60;0.60;;;24.10;56.70;;;;;;5110131;28;20277;-70
2021/08/07 02:16:23;;;;;;;0.70;0.70;;;24.00;56.80;;;;;;5098691;28;20213;-70
2021/08/07 02:19:00;;;;;;;0.90;0.70;;;24.00;56.80;;;;;;5084347;28;20200;-71
2021/08/07 02:21:29;;;;;;;0.80;0.80;;;24.10;56.80;;;;;;5103153;28;20199;-71
2021/08/07 02:24:00;;;;;;;1.27;0.87;;;24.10;56.70;;;;;;5107155;28;20542;-70
2021/08/07 02:26:33;;;;;;;0.97;0.87;;;24.00;56.70;;;;;;5106022;28;20212;-70
2021/08/07 02:29:06;;;;;;;0.60;0.60;;;24.00;56.60;;;;;;5106145;28;20204;-71
2021/08/07 02:31:36;;;;;;;0.60;0.60;;;24.00;56.90;;;;;;5095960;28;20234;-70
2021/08/07 02:34:09;;;;;;;0.73;0.73;;;24.00;56.90;;;;;;5075529;28;21643;-70
2021/08/07 02:36:48;;;;;;;0.80;0.80;;;24.00;56.80;;;;;;5111618;28;20226;-70
2021/08/07 02:39:27;;;;;;;0.70;0.70;;;24.00;56.80;;;;;;5104609;28;20703;-71
2021/08/07 02:41:58;;;;;;;0.87;0.70;;;24.00;56.70;;;;;;5109418;28;20210;-70
2021/08/07 02:44:30;;;;;;;0.70;0.70;;;24.00;56.70;;;;;;5100210;28;20212;-70
2021/08/07 02:46:59;;;;;;;0.80;0.70;;;24.00;56.70;;;;;;5106912;28;20205;-70
2021/08/07 02:49:31;;;;;;;0.70;0.70;;;24.00;56.80;;;;;;5088314;28;20200;-70
2021/08/07 02:52:01;;;;;;;0.70;0.70;;;24.00;56.70;;;;;;5109979;28;20230;-71
2021/08/07 02:54:33;;;;;;;1.13;0.77;;;24.00;56.80;;;;;;5102433;28;20192;-70
2021/08/07 02:57:03;;;;;;;0.70;0.70;;;24.00;56.90;;;;;;5089998;28;20235;-70
2021/08/07 02:59:30;;;;;;;1.40;0.70;;;24.00;56.70;;;;;;5105531;28;20757;-71
2021/08/07 03:02:02;;;;;;;0.77;0.77;;;24.00;56.80;;;;;;5104627;28;20644;-71
2021/08/07 03:04:33;;;;;;;0.97;0.90;;;24.00;56.70;;;;;;5109540;28;20188;-71
2021/08/07 03:07:04;;;;;;;0.70;0.70;;;24.00;56.70;;;;;;5105638;28;20207;-71
2021/08/07 03:09:48;;;;;;;1.33;0.90;;;24.00;56.70;;;;;;5101562;28;20188;-71
2021/08/07 03:12:17;;;;;;;0.70;0.70;;;24.00;56.70;;;;;;5103377;28;20785;-71
2021/08/07 03:14:49;;;;;;;0.70;0.70;;;24.00;56.70;;;;;;5106537;28;20215;-71
2021/08/07 03:17:19;;;;;;;0.60;0.60;;;24.00;56.70;;;;;;5098170;28;20281;-71
2021/08/07 03:19:50;;;;;;;0.83;0.63;;;24.00;56.70;;;;;;5109315;28;20512;-71
2021/08/07 03:22:26;;;;;;;0.90;0.80;;;24.00;56.80;;;;;;5097724;28;20200;-70
2021/08/07 03:24:55;;;;;;;0.83;0.83;;;24.00;56.70;;;;;;5099413;28;20253;-71
2021/08/07 03:27:25;;;;;;;0.80;0.80;;;24.00;56.80;;;;;;5102538;28;20193;-71
2021/08/07 03:29:57;;;;;;;1.20;0.70;;;24.00;56.80;;;;;;5107618;28;20219;-70
2021/08/07 03:32:28;;;;;;;0.80;0.80;;;24.00;56.70;;;;;;5104532;28;20204;-70
2021/08/07 03:35:00;;;;;;;0.70;0.70;;;24.00;56.80;;;;;;5102351;28;20828;-70
2021/08/07 03:37:29;;;;;;;0.80;0.80;;;24.00;57.40;;;;;;5102010;28;20228;-71
2021/08/07 03:40:01;;;;;;;0.60;0.60;;;24.00;56.80;;;;;;5104230;28;20206;-71
2021/08/07 03:42:30;;;;;;;0.90;0.90;;;23.90;56.70;;;;;;5108915;28;20192;-71
2021/08/07 03:45:01;;;;;;;0.60;0.60;;;23.90;56.70;;;;;;5100221;28;20192;-71
2021/08/07 03:47:31;;;;;;;0.80;0.67;;;24.00;56.80;;;;;;5097714;28;20279;-71
2021/08/07 03:50:02;;;;;;;0.60;0.60;;;23.90;56.80;;;;;;5108362;28;20203;-71
2021/08/07 03:52:30;;;;;;;0.67;0.67;;;24.00;56.90;;;;;;5108379;28;20661;-71
2021/08/07 03:54:59;;;;;;;0.70;0.70;;;23.90;56.80;;;;;;5101556;28;20222;-71
2021/08/07 03:57:32;;;;;;;0.80;0.80;;;23.90;56.80;;;;;;5106183;28;20243;-71
2021/08/07 04:00:42;;;;;;;0.67;0.67;;;23.90;56.80;;;;;;5102081;28;20257;-71
2021/08/07 04:03:42;;;;;;;0.63;0.63;;;23.90;56.90;;;;;;5098253;28;20594;-72
2021/08/07 04:06:28;;;;;;;0.70;0.70;;;23.90;57.50;;;;;;5106457;28;20274;-71
2021/08/07 04:08:56;;;;;;;0.60;0.60;;;23.90;56.80;;;;;;5086947;28;20200;-71
2021/08/07 04:11:28;;;;;;;1.53;0.97;;;23.90;56.80;;;;;;5116401;28;20201;-71
2021/08/07 04:13:59;;;;;;;0.90;0.80;;;23.90;56.80;;;;;;5103436;28;20672;-72
2021/08/07 04:16:32;;;;;;;0.60;0.60;;;23.90;56.80;;;;;;5110484;28;20220;-71
2021/08/07 04:19:07;;;;;;;0.70;0.70;;;23.90;56.80;;;;;;5100625;28;20192;-71
2021/08/07 04:21:40;;;;;;;0.60;0.60;;;23.90;56.70;;;;;;5104006;28;20621;-71
2021/08/07 04:24:11;;;;;;;1.33;0.70;;;23.90;56.80;;;;;;5102705;28;20204;-72
2021/08/07 04:26:40;;;;;;;0.80;0.73;;;23.90;56.70;;;;;;5098821;28;20227;-71
2021/08/07 04:29:10;;;;;;;0.60;0.60;;;23.90;56.70;;;;;;5109149;28;20273;-71
2021/08/07 04:31:40;;;;;;;0.77;0.67;;;23.90;56.70;;;;;;5100852;28;20209;-71
2021/08/07 04:34:12;;;;;;;0.87;0.70;;;23.90;56.60;;;;;;5109053;28;20216;-71
2021/08/07 04:36:42;;;;;;;0.67;0.60;;;23.90;56.60;;;;;;5101567;28;20216;-71
2021/08/07 04:39:12;;;;;;;0.60;0.60;;;23.90;56.60;;;;;;5107639;28;20219;-71
2021/08/07 04:41:49;;;;;;;0.80;0.60;;;23.90;56.60;;;;;;5099742;28;20223;-71
2021/08/07 04:44:21;;;;;;;0.70;0.70;;;23.90;56.60;;;;;;5094993;28;20204;-72
2021/08/07 04:46:56;;;;;;;0.60;0.60;;;23.90;56.60;;;;;;5103742;28;20199;-71
2021/08/07 04:49:25;;;;;;;0.80;0.80;;;23.90;56.60;;;;;;5102212;28;20238;-72
2021/08/07 04:51:54;;;;;;;0.50;0.50;;;23.80;56.50;;;;;;5106375;28;20200;-71
2021/08/07 04:54:27;;;;;;;0.80;0.60;;;23.90;56.60;;;;;;5105731;28;20656;-73
2021/08/07 04:56:58;;;;;;;1.10;0.80;;;23.90;56.60;;;;;;5100775;28;20301;-70
2021/08/07 04:59:30;;;;;;;0.60;0.60;;;23.80;56.50;;;;;;5102372;28;20207;-71
2021/08/07 05:01:59;;;;;;;0.70;0.70;;;23.80;56.50;;;;;;5091085;28;20207;-71
2021/08/07 05:04:28;;;;;;;0.80;0.80;;;23.80;56.60;;;;;;5100724;28;20254;-72
2021/08/07 05:06:59;;;;;;;0.80;0.70;;;23.80;56.50;;;;;;5101301;28;20265;-72
2021/08/07 05:09:30;;;;;;;0.60;0.60;;;23.90;56.60;;;;;;5098527;28;20212;-71
2021/08/07 05:11:59;;;;;;;0.70;0.70;;;23.80;56.50;;;;;;5098540;28;20201;-71
2021/08/07 05:14:29;;;;;;;0.77;0.67;;;23.80;56.50;;;;;;5095897;28;20619;-71
2021/08/07 05:16:59;;;;;;;0.77;0.67;;;23.80;56.50;;;;;;5094656;28;20227;-71
2021/08/07 05:19:31;;;;;;;0.80;0.60;;;23.80;56.50;;;;;;5095561;28;20650;-71
2021/08/07 05:22:01;;;;;;;0.60;0.60;;;23.80;56.50;;;;;;5102843;28;20216;-71
2021/08/07 05:24:31;;;;;;;0.60;0.60;;;23.80;56.50;;;;;;5101640;28;20200;-71
2021/08/07 05:27:00;;;;;;;2.23;0.60;;;23.80;56.50;;;;;;5102951;28;20666;-72
2021/08/07 05:29:29;;;;;;;1.07;0.80;;;23.80;56.50;;;;;;5092971;28;20610;-71
2021/08/07 05:31:57;;;;;;;1.03;0.70;;;23.80;56.50;;;;;;5105036;28;20207;-71
2021/08/07 05:34:31;;;;;;;0.97;0.80;;;23.80;56.50;;;;;;5102299;28;20225;-72
2021/08/07 05:37:02;;;;;;;0.60;0.50;;;23.80;56.50;;;;;;5104903;28;20221;-71
2021/08/07 05:39:34;;;;;;;0.70;0.70;;;23.80;56.50;;;;;;5101840;28;20184;-71
2021/08/07 05:42:02;;;;;;;0.60;0.60;;;23.80;56.50;;;;;;5100604;28;20627;-71
2021/08/07 05:44:31;;;;;;;1.17;0.90;;;23.80;56.40;;;;;;5100298;28;20204;-71
2021/08/07 05:47:04;;;;;;;0.70;0.70;;;23.80;56.40;;;;;;5101489;28;20192;-71
2021/08/07 05:49:37;;;;;;;0.70;0.70;;;23.80;56.40;;;;;;5112095;28;20524;-71
2021/08/07 05:52:08;;;;;;;0.87;0.70;;;23.80;56.40;;;;;;5109382;28;20711;-71
2021/08/07 05:54:38;;;;;;;1.00;0.80;;;23.80;56.40;;;;;;5113477;28;20208;-72
2021/08/07 05:57:09;;;;;;;0.80;0.80;;;23.80;56.40;;;;;;5107910;28;20578;-72
2021/08/07 05:59:39;;;;;;;0.97;0.60;;;23.80;56.50;;;;;;5111749;28;20207;-72
2021/08/07 06:02:07;;;;;;;0.50;0.50;;;23.80;56.40;;;;;;5111752;28;20189;-71
2021/08/07 06:04:37;;;;;;;0.60;0.60;;;23.70;56.30;;;;;;5103519;28;20216;-71
2021/08/07 06:07:09;;;;;;;0.80;0.80;;;23.70;56.30;;;;;;5107730;28;20663;-71
2021/08/07 06:09:41;;;;;;;0.60;0.60;;;23.80;56.40;;;;;;5107771;28;20216;-72
2021/08/07 06:12:10;;;;;;;0.90;0.80;;;23.80;56.40;;;;;;5107850;28;20197;-71
2021/08/07 06:14:56;;;;;;;1.87;0.60;;;23.80;56.40;;;;;;5103438;28;20245;-71
2021/08/07 06:17:25;;;;;;;1.00;0.73;;;23.70;56.40;;;;;;5110785;28;20239;-72
2021/08/07 06:19:59;;;;;;;0.50;0.50;;;23.70;56.30;;;;;;5100550;28;20184;-72
2021/08/07 06:22:31;;;;;;;0.90;0.60;;;23.70;56.30;;;;;;5108297;28;20197;-72
2021/08/07 06:25:01;;;;;;;0.60;0.60;;;23.70;56.30;;;;;;5101798;28;20197;-72
2021/08/07 06:27:35;;;;;;;1.50;0.80;;;23.70;56.30;;;;;;5093621;28;20200;-72
2021/08/07 06:30:29;;;;;;;1.50;0.83;;;23.70;56.30;;;;;;5100295;28;20208;-72
2021/08/07 06:32:59;;;;;;;0.93;0.87;;;23.70;56.20;;;;;;5108536;28;20204;-71
2021/08/07 06:35:31;;;;;;;0.70;0.70;;;23.70;56.20;;;;;;5109440;28;20287;-71
2021/08/07 06:38:01;;;;;;;0.60;0.60;;;23.70;56.30;;;;;;5105074;28;20307;-72
2021/08/07 06:40:30;;;;;;;0.77;0.70;;;23.70;56.30;;;;;;5108007;28;20205;-69
2021/08/07 06:43:01;;;;;;;0.90;0.80;;;23.70;56.30;;;;;;5106390;28;20678;-71
2021/08/07 06:45:34;;;;;;;0.93;0.70;;;23.70;56.30;;;;;;5094549;28;20212;-71
2021/08/07 06:48:08;;;;;;;0.90;0.77;;;23.70;56.20;;;;;;5107782;27;20235;-71
2021/08/07 06:50:37;;;;;;;0.60;0.60;;;23.70;56.20;;;;;;5098659;28;20197;-72
2021/08/07 06:53:05;;;;;;;1.47;1.00;;;23.70;56.20;;;;;;5081540;28;20197;-72
2021/08/07 06:55:34;;;;;;;0.77;0.77;;;23.70;56.20;;;;;;5103227;28;20279;-72
2021/08/07 06:58:06;;;;;;;1.57;0.90;;;23.80;56.30;;;;;;5104209;28;20236;-71
2021/08/07 07:00:41;;;;;;;0.80;0.80;;;23.70;56.20;;;;;;5108117;28;20204;-71
2021/08/07 07:03:11;;;;;;;1.17;1.07;;;23.70;56.20;;;;;;5092010;28;20749;-72
2021/08/07 07:05:43;;;;;;;1.07;0.80;;;23.70;56.30;;;;;;5107599;28;20211;-72
2021/08/07 07:08:16;;;;;;;1.03;0.70;;;23.70;56.40;;;;;;5102367;28;20265;-72
2021/08/07 07:10:49;;;;;;;5.10;1.00;;;23.70;56.30;;;;;;5091058;28;20633;-72
2021/08/07 07:13:20;;;;;;;3.07;0.90;;;23.70;56.40;;;;;;5110181;28;20211;-72
2021/08/07 07:15:56;;;;;;;1.23;1.00;;;23.70;56.30;;;;;;5102778;28;20580;-72
2021/08/07 07:18:28;;;;;;;0.80;0.80;;;23.70;56.20;;;;;;5109889;28;20220;-72
2021/08/07 07:20:59;;;;;;;1.80;1.00;;;23.80;56.30;;;;;;5098772;28;20200;-72
2021/08/07 07:23:32;;;;;;;1.03;0.93;;;23.70;56.20;;;;;;5103101;28;20200;-72
2021/08/07 07:26:04;;;;;;;0.90;0.90;;;23.70;56.20;;;;;;5105474;28;20250;-72
2021/08/07 07:28:35;;;;;;;0.90;0.90;;;23.70;56.20;;;;;;5102521;28;20596;-72
2021/08/07 07:31:08;;;;;;;1.40;0.90;;;23.70;56.20;;;;;;5097865;28;20208;-71
2021/08/07 07:33:41;;;;;;;1.07;1.07;;;23.70;56.20;;;;;;5100536;28;20281;-71
2021/08/07 07:36:13;;;;;;;2.00;1.00;;;23.80;56.20;;;;;;5097291;28;20208;-70
2021/08/07 07:38:44;;;;;;;0.77;0.63;;;23.70;56.20;;;;;;5096883;28;20216;-71
2021/08/07 07:41:14;;;;;;;0.70;0.70;;;23.70;56.20;;;;;;5108304;28;20696;-72
2021/08/07 07:43:46;;;;;;;1.27;1.10;;;23.70;56.10;;;;;;5087423;28;20199;-72
2021/08/07 07:46:15;;;;;;;2.57;1.00;;;23.80;56.20;;;;;;5101348;28;20317;-72
2021/08/07 07:48:47;;;;;;;0.90;0.70;;;23.70;56.10;;;;;;5105835;28;20193;-73
2021/08/07 07:51:19;;;;;;;0.80;0.80;;;23.70;56.10;;;;;;5109625;28;20676;-72
2021/08/07 07:53:50;;;;;;;1.00;0.90;;;23.80;56.20;;;;;;5106200;28;20302;-72
2021/08/07 07:56:22;;;;;;;0.80;0.80;;;23.80;56.20;;;;;;5101118;28;20196;-72
2021/08/07 07:58:54;;;;;;;1.87;0.70;;;23.80;56.20;;;;;;5100662;28;20237;-72
2021/08/07 08:01:23;;;;;;;0.93;0.90;;;23.80;56.20;;;;;;5111149;28;20200;-71
2021/08/07 08:03:50;;;;;;;1.40;1.03;;;23.80;56.20;;;;;;5102471;28;20235;-71
2021/08/07 08:06:23;;;;;;;1.37;0.90;;;23.80;56.30;;;;;;5094083;28;20224;-72
2021/08/07 08:08:52;;;;;;;1.47;0.70;;;23.80;56.30;;;;;;5102194;28;20705;-72
2021/08/07 08:11:24;;;;;;;3.53;1.10;;;23.80;56.30;;;;;;5093394;28;20204;-72
2021/08/07 08:13:58;;;;;;;0.73;0.73;;;23.80;56.30;;;;;;5101552;28;20555;-72
2021/08/07 08:16:34;;;;;;;1.03;0.93;;;23.80;56.40;;;;;;5108756;28;20203;-72
2021/08/07 08:19:06;;;;;;;1.83;1.17;;;23.80;56.40;;;;;;5103111;28;20257;-72
2021/08/07 08:21:33;;;;;;;1.67;0.87;;;23.80;56.40;;;;;;5103682;28;20196;-72
2021/08/07 08:24:05;;;;;;;0.90;0.90;;;23.80;56.40;;;;;;5099165;28;20293;-71
2021/08/07 08:26:42;;;;;;;1.20;1.10;;;23.80;56.40;;;;;;5107835;28;20272;-72
2021/08/07 08:29:09;;;;;;;2.27;0.93;;;23.80;56.40;;;;;;5104510;28;20658;-71
2021/08/07 08:31:39;;;;;;;1.03;0.93;;;23.80;56.50;;;;;;5101521;28;20305;-71
2021/08/07 08:34:08;;;;;;;1.70;1.10;;;23.80;56.80;;;;;;5099578;28;20219;-71
2021/08/07 08:36:35;;;;;;;1.60;0.90;;;23.80;56.50;;;;;;5103065;28;20201;-70
2021/08/07 08:39:06;;;;;;;1.23;1.00;;;23.80;56.50;;;;;;5101553;28;20205;-70
2021/08/07 08:41:35;;;;;;;1.00;0.90;;;23.80;56.50;;;;;;5100961;28;20193;-72
2021/08/07 08:44:05;;;;;;;1.27;0.80;;;23.80;56.50;;;;;;5107214;28;20207;-72
2021/08/07 08:46:49;;;;;;;2.10;1.03;;;23.80;56.50;;;;;;5100273;28;20271;-72
2021/08/07 08:49:20;;;;;;;1.53;1.00;;;23.80;56.50;;;;;;5095595;28;20196;-72
2021/08/07 08:51:51;;;;;;;1.20;0.90;;;23.80;56.50;;;;;;5094113;28;20228;-72
2021/08/07 08:54:22;;;;;;;1.37;0.87;;;23.80;56.50;;;;;;5103414;28;20210;-72
2021/08/07 08:56:52;;;;;;;1.63;1.00;;;23.80;56.50;;;;;;5089803;28;20227;-71
2021/08/07 08:59:22;;;;;;;2.47;1.30;;;23.80;56.60;;;;;;5098130;28;20228;-71
2021/08/07 09:01:54;;;;;;;1.30;0.90;;;23.80;56.60;;;;;;5101355;28;20192;-72
2021/08/07 09:04:36;;;;;;;1.20;0.97;;;23.80;56.60;;;;;;5102955;28;20213;-72
2021/08/07 09:07:05;;;;;;;1.93;0.97;;;23.80;56.70;;;;;;5091194;28;20212;-72
2021/08/07 09:09:44;;;;;;;2.27;1.20;;;23.80;56.60;;;;;;5102987;28;20196;-72
2021/08/07 09:12:13;;;;;;;1.47;1.10;;;23.80;56.70;;;;;;5095881;28;20246;-72
2021/08/07 09:14:45;;;;;;;1.60;1.00;;;23.90;56.70;;;;;;5099287;28;20189;-72
2021/08/07 09:17:21;;;;;;;1.30;0.93;;;23.80;56.70;;;;;;5074613;28;20203;-73
2021/08/07 09:20:01;;;;;;;2.13;1.00;;;23.80;56.70;;;;;;5090637;28;20196;-72
2021/08/07 09:22:42;;;;;;;1.47;1.10;;;23.80;56.70;;;;;;5101966;28;20267;-72
2021/08/07 09:25:16;;;;;;;1.47;1.10;;;23.80;56.60;;;;;;5098579;28;20211;-72
2021/08/07 09:27:52;;;;;;;2.33;1.30;;;23.80;56.60;;;;;;5101305;28;20665;-72
2021/08/07 09:30:32;;;;;;;1.77;1.00;;;23.90;56.70;;;;;;5103888;28;20204;-72
2021/08/07 09:33:09;;;;;;;1.40;1.10;;;23.90;56.70;;;;;;5099292;28;20211;-72
2021/08/07 09:35:47;;;;;;;1.53;1.00;;;23.90;56.70;;;;;;5096350;28;20204;-72
2021/08/07 09:38:23;;;;;;;1.53;1.20;;;23.80;56.80;;;;;;5099855;28;20237;-72
2021/08/07 09:41:06;;;;;;;1.23;1.00;;;23.90;56.80;;;;;;5105573;28;20207;-72
2021/08/07 09:43:52;;;;;;;1.43;1.23;;;23.90;56.80;;;;;;5103881;28;20193;-72
2021/08/07 09:46:42;;;;;;;1.57;1.07;;;23.90;56.80;;;;;;5100816;28;20543;-72
2021/08/07 09:49:10;;;;;;;1.67;1.00;;;23.90;56.80;;;;;;5120725;28;20261;-72
2021/08/07 09:51:54;;;;;;;2.40;1.07;;;23.90;56.80;;;;;;5103629;28;20290;-72
2021/08/07 09:54:46;;;;;;;1.43;1.07;;;23.90;56.80;;;;;;5093546;28;20283;-71
2021/08/07 09:57:28;;;;;;;2.97;1.17;;;23.90;56.80;;;;;;5098520;28;20771;-72
2021/08/07 09:59:57;;;;;;;1.37;1.00;;;23.90;56.90;;;;;;5089047;28;20258;-71
2021/08/07 10:02:32;;;;;;;3.03;1.30;;;23.90;56.90;;;;;;5099942;28;20201;-73
2021/08/07 10:05:11;;;;;;;2.50;1.20;;;24.00;57.00;;;;;;5090822;28;20261;-73
2021/08/07 10:08:02;;;;;;;2.07;1.20;;;24.00;57.00;;;;;;5104825;28;20189;-72
2021/08/07 10:10:34;;;;;;;1.97;1.10;;;24.00;57.00;;;;;;5099062;28;20189;-73
2021/08/07 10:13:07;;;;;;;2.50;1.50;;;23.90;56.90;;;;;;5105995;28;20605;-72
2021/08/07 10:15:40;;;;;;;1.40;1.10;;;24.00;57.00;;;;;;5099759;28;20215;-71
2021/08/07 10:18:13;;;;;;;1.63;1.03;;;24.00;57.00;;;;;;5107872;28;20224;-73
2021/08/07 10:20:44;;;;;;;3.17;1.20;;;24.00;57.00;;;;;;5080543;28;20286;-72
2021/08/07 10:23:11;;;;;;;1.30;1.20;;;24.00;57.00;;;;;;5106372;28;20196;-72
2021/08/07 10:25:44;;;;;;;1.00;0.90;;;24.00;57.00;;;;;;5101983;28;20198;-72
2021/08/07 10:28:16;;;;;;;1.70;1.00;;;24.00;57.00;;;;;;5108400;28;20204;-72
2021/08/07 10:30:46;;;;;;;1.03;0.93;;;24.00;57.00;;;;;;5102597;28;20223;-72
2021/08/07 10:33:29;;;;;;;1.70;1.10;;;24.00;57.00;;;;;;5106425;28;20201;-72
2021/08/07 10:36:02;;;;;;;1.70;1.20;;;24.00;57.00;;;;;;5110778;28;20203;-72
2021/08/07 10:38:31;;;;;;;2.53;1.10;;;24.10;57.00;;;;;;5106781;28;20880;-72
2021/08/07 10:41:02;;;;;;;2.33;1.20;;;24.10;57.00;;;;;;5112648;28;20207;-72
2021/08/07 10:43:37;;;;;;;1.53;0.90;;;24.00;56.90;;;;;;5103077;28;20246;-72
2021/08/07 10:46:13;;;;;;;1.37;1.03;;;24.10;56.90;;;;;;5098322;28;20193;-73
2021/08/07 10:48:48;;;;;;;2.20;1.03;;;24.10;56.90;;;;;;5099136;28;20221;-73
2021/08/07 10:51:33;;;;;;;2.17;1.27;;;24.10;56.90;;;;;;5094723;28;20299;-73
2021/08/07 10:54:19;;;;;;;1.13;0.93;;;24.10;56.80;;;;;;5101834;28;20185;-73
2021/08/07 10:56:49;;;;;;;1.20;1.00;;;24.10;56.80;;;;;;5108193;28;20207;-72
2021/08/07 10:59:23;;;;;;;1.83;1.03;;;24.10;56.80;;;;;;5093432;28;20232;-72
2021/08/07 11:01:54;;;;;;;1.67;1.10;;;24.10;56.90;;;;;;5102414;28;20200;-72
2021/08/07 11:04:50;;;;;;;3.30;1.20;;;24.10;56.70;;;;;;5099928;28;20193;-72
2021/08/07 11:07:19;;;;;;;2.67;1.00;;;24.10;56.70;;;;;;5101104;28;20201;-72
2021/08/07 11:10:29;;;;;;;1.50;0.93;;;24.10;56.70;;;;;;5109681;28;20321;-72
2021/08/07 11:13:21;;;;;;;1.47;1.00;;;24.20;56.70;;;;;;5068916;28;20603;-73
2021/08/07 11:16:21;;;;;;;1.73;1.20;;;24.20;56.70;;;;;;5105356;28;20216;-72
2021/08/07 11:18:51;;;;;;;1.33;0.80;;;24.20;56.60;;;;;;5109526;28;20664;-72
2021/08/07 11:21:52;;;;;;;1.40;0.93;;;24.20;56.70;;;;;;5102148;28;20206;-72
2021/08/07 11:24:49;;;;;;;1.43;1.13;;;24.20;56.70;;;;;;5101143;28;20193;-71
2021/08/07 11:27:58;;;;;;;1.87;1.10;;;24.30;56.70;;;;;;5092597;28;20197;-71
2021/08/07 11:30:39;;;;;;;2.67;1.33;;;24.20;56.60;;;;;;5097434;28;20359;-72
2021/08/07 11:33:12;;;;;;;2.20;1.07;;;24.20;56.60;;;;;;5105148;28;20196;-72
2021/08/07 11:36:05;;;;;;;1.63;1.00;;;24.30;56.80;;;;;;5096127;28;20208;-72
2021/08/07 11:38:34;;;;;;;1.60;0.90;;;24.30;56.70;;;;;;5107158;28;20554;-72
2021/08/07 11:41:34;;;;;;;1.87;1.07;;;24.30;56.70;;;;;;5105143;28;20254;-73
2021/08/07 11:44:07;;;;;;;1.10;0.93;;;24.30;56.80;;;;;;5103011;28;20203;-73
2021/08/07 11:46:58;;;;;;;1.17;0.90;;;24.30;56.70;;;;;;5105072;28;20436;-73
2021/08/07 11:49:31;;;;;;;1.63;0.90;;;24.30;56.70;;;;;;5102613;28;20253;-73
2021/08/07 11:52:00;;;;;;;1.40;1.10;;;24.30;56.70;;;;;;5093417;28;20216;-71
2021/08/07 11:54:30;;;;;;;3.20;1.10;;;24.30;56.80;;;;;;5101614;28;20205;-72
2021/08/07 11:56:57;;;;;;;1.47;1.00;;;24.30;56.70;;;;;;5109344;28;20219;-71
2021/08/07 11:59:29;;;;;;;1.83;1.20;;;24.40;56.80;;;;;;5105529;28;20243;-71
2021/08/07 12:02:16;;;;;;;2.33;1.10;;;24.40;56.80;;;;;;5108061;28;20192;-71
2021/08/07 12:05:08;;;;;;;1.27;0.90;;;24.40;56.80;;;;;;5085210;28;20665;-71
2021/08/07 12:07:59;;;;;;;1.43;0.97;;;24.40;56.80;;;;;;5104929;28;20258;-73
2021/08/07 12:10:46;;;;;;;1.23;1.00;;;24.40;56.70;;;;;;5109059;28;20185;-73
2021/08/07 12:13:39;;;;;;;1.17;0.83;;;24.40;56.70;;;;;;5100871;28;20637;-72
2021/08/07 12:16:18;;;;;;;1.77;0.83;;;24.40;56.70;;;;;;5107099;28;20564;-72
2021/08/07 12:19:21;;;;;;;1.10;1.00;;;24.40;56.70;;;;;;5105445;28;20243;-72
2021/08/07 12:21:50;;;;;;;2.13;0.90;;;24.40;56.70;;;;;;5100754;28;20216;-71
2021/08/07 12:24:25;;;;;;;3.07;1.00;;;24.50;56.80;;;;;;5109506;28;20208;-72
2021/08/07 12:26:58;;;;;;;1.73;0.93;;;24.40;56.70;;;;;;5107821;28;20204;-72
2021/08/07 12:29:33;;;;;;;1.57;0.93;;;24.50;56.80;;;;;;5095996;28;20239;-72
2021/08/07 12:32:05;;;;;;;2.00;1.00;;;24.50;56.90;;;;;;5098879;28;20215;-73
2021/08/07 12:34:39;;;;;;;1.83;1.07;;;24.50;56.80;;;;;;5106778;28;21059;-73
2021/08/07 12:37:20;;;;;;;2.50;1.00;;;24.50;56.80;;;;;;5120953;27;20274;-72
2021/08/07 12:40:06;;;;;;;1.80;1.00;;;24.50;56.80;;;;;;5106605;28;20296;-73
2021/08/07 12:42:34;;;;;;;1.20;0.90;;;24.50;56.80;;;;;;5098157;28;20184;-73
2021/08/07 12:45:10;;;;;;;1.53;1.07;;;24.60;56.80;;;;;;5101578;28;20206;-73
2021/08/07 12:47:57;;;;;;;2.00;1.00;;;24.60;56.90;;;;;;5109189;28;20207;-72
2021/08/07 12:50:27;;;;;;;1.37;0.87;;;24.50;56.80;;;;;;5101628;28;20204;-72
2021/08/07 12:52:59;;;;;;;1.47;0.90;;;24.60;56.80;;;;;;5099133;28;20607;-72
2021/08/07 12:55:50;;;;;;;2.20;1.00;;;24.60;56.80;;;;;;5101115;28;20200;-72
2021/08/07 12:58:21;;;;;;;1.57;1.10;;;24.60;56.80;;;;;;5097091;28;20236;-72
2021/08/07 13:01:10;;;;;;;2.83;1.50;;;24.60;56.90;;;;;;5105444;28;20195;-72
2021/08/07 13:03:58;;;;;;;2.30;1.20;;;24.60;56.80;;;;;;5091202;27;20196;-72
2021/08/07 13:06:29;;;;;;;2.10;1.00;;;24.70;56.80;;;;;;5089983;28;20195;-73
2021/08/07 13:09:26;;;;;;;2.30;1.07;;;24.70;56.80;;;;;;5103034;28;20284;-72
2021/08/07 13:12:34;;;;;;;1.60;1.03;;;24.60;56.70;;;;;;5098380;28;20220;-73
2021/08/07 13:15:09;;;;;;;2.17;0.97;;;24.60;56.60;;;;;;5099832;28;20200;-73
2021/08/07 13:17:47;;;;;;;1.90;0.87;;;24.60;56.60;;;;;;5106141;28;20488;-73
2021/08/07 13:20:42;;;;;;;2.13;0.90;;;24.70;56.60;;;;;;5100700;28;20198;-72
2021/08/07 13:23:36;;;;;;;1.30;1.17;;;24.70;56.60;;;;;;5102161;28;20283;-72
2021/08/07 13:26:10;;;;;;;1.03;0.93;;;24.70;56.70;;;;;;5097144;28;20922;-72
2021/08/07 13:28:39;;;;;;;1.67;1.00;;;24.70;56.60;;;;;;5107210;28;20200;-73